sensor_id;sensor_type;location;lat;lon;timestamp;temperature;humidity
16243;DHT22;11719;51.052;6.982;2023-09-08T00:00:57;22.10;99.90
16243;DHT22;11719;51.052;6.982;2023-09-08T00:03:23;22.10;99.90
16243;DHT22;11719;51.052;6.982;2023-09-08T00:05:49;22.10;99.90
16243;DHT22;11719;51.052;6.982;2023-09-08T00:08:15;22.00;99.90
16243;DHT22;11719;51.052;6.982;2023-09-08T00:10:41;22.00;99.90
16243;DHT22;11719;51.052;6.982;2023-09-08T00:13:07;21.90;99.90
16243;DHT22;11719;51.052;6.982;2023-09-08T00:15:34;21.90;99.90
16243;DHT22;11719;51.052;6.982;2023-09-08T00:18:03;21.90;99.90
16243;DHT22;11719;51.052;6.982;2023-09-08T00:20:29;21.90;99.90
16243;DHT22;11719;51.052;6.982;2023-09-08T00:22:54;21.90;99.90
16243;DHT22;11719;51.052;6.982;2023-09-08T00:25:20;21.90;99.90
16243;DHT22;11719;51.052;6.982;2023-09-08T00:27:46;21.90;99.90
16243;DHT22;11719;51.052;6.982;2023-09-08T00:30:12;22.00;99.90
16243;DHT22;11719;51.052;6.982;2023-09-08T00:32:38;22.00;99.90
16243;DHT22;11719;51.052;6.982;2023-09-08T00:35:07;21.90;99.90
16243;DHT22;11719;51.052;6.982;2023-09-08T00:37:36;21.90;99.90
16243;DHT22;11719;51.052;6.982;2023-09-08T00:40:02;21.80;99.90
16243;DHT22;11719;51.052;6.982;2023-09-08T00:42:29;21.80;99.90
16243;DHT22;11719;51.052;6.982;2023-09-08T00:44:54;21.80;99.90
16243;DHT22;11719;51.052;6.982;2023-09-08T00:47:20;21.80;99.90
16243;DHT22;11719;51.052;6.982;2023-09-08T00:49:46;21.80;99.90
16243;DHT22;11719;51.052;6.982;2023-09-08T00:52:12;21.80;99.90
16243;DHT22;11719;51.052;6.982;2023-09-08T00:54:38;21.90;99.90
16243;DHT22;11719;51.052;6.982;2023-09-08T00:57:05;21.90;99.90
16243;DHT22;11719;51.052;6.982;2023-09-08T00:59:32;21.90;99.90
16243;DHT22;11719;51.052;6.982;2023-09-08T01:01:59;21.90;99.90
16243;DHT22;11719;51.052;6.982;2023-09-08T01:04:24;21.90;99.90
16243;DHT22;11719;51.052;6.982;2023-09-08T01:06:50;21.90;99.90
16243;DHT22;11719;51.052;6.982;2023-09-08T01:09:17;21.90;99.90
16243;DHT22;11719;51.052;6.982;2023-09-08T01:11:44;21.90;99.90
16243;DHT22;11719;51.052;6.982;2023-09-08T01:14:12;21.90;99.90
16243;DHT22;11719;51.052;6.982;2023-09-08T01:16:39;21.90;99.90
16243;DHT22;11719;51.052;6.982;2023-09-08T01:19:11;21.90;99.90
16243;DHT22;11719;51.052;6.982;2023-09-08T01:22:06;21.90;99.90
16243;DHT22;11719;51.052;6.982;2023-09-08T01:25:04;21.90;99.90
16243;DHT22;11719;51.052;6.982;2023-09-08T01:27:36;21.90;99.90
16243;DHT22;11719;51.052;6.982;2023-09-08T01:30:05;21.90;99.90
16243;DHT22;11719;51.052;6.982;2023-09-08T01:32:32;21.80;99.90
16243;DHT22;11719;51.052;6.982;2023-09-08T01:34:58;21.90;99.90
16243;DHT22;11719;51.052;6.982;2023-09-08T01:37:25;21.90;99.90
16243;DHT22;11719;51.052;6.982;2023-09-08T01:39:51;21.90;99.90
16243;DHT22;11719;51.052;6.982;2023-09-08T01:42:17;21.90;99.90
16243;DHT22;11719;51.052;6.982;2023-09-08T01:44:43;21.90;99.90
16243;DHT22;11719;51.052;6.982;2023-09-08T01:47:09;21.90;99.90
16243;DHT22;11719;51.052;6.982;2023-09-08T01:49:35;21.90;99.90
16243;DHT22;11719;51.052;6.982;2023-09-08T01:52:00;21.90;99.90
16243;DHT22;11719;51.052;6.982;2023-09-08T01:54:26;21.80;99.90
16243;DHT22;11719;51.052;6.982;2023-09-08T01:56:52;21.80;99.90
16243;DHT22;11719;51.052;6.982;2023-09-08T01:59:18;21.80;99.90
16243;DHT22;11719;51.052;6.982;2023-09-08T02:01:43;21.70;99.90
16243;DHT22;11719;51.052;6.982;2023-09-08T02:04:09;21.70;99.90
16243;DHT22;11719;51.052;6.982;2023-09-08T02:06:35;21.70;99.90
16243;DHT22;11719;51.052;6.982;2023-09-08T02:09:01;21.70;99.90
16243;DHT22;11719;51.052;6.982;2023-09-08T02:11:27;21.80;99.90
16243;DHT22;11719;51.052;6.982;2023-09-08T02:13:53;21.80;99.90
16243;DHT22;11719;51.052;6.982;2023-09-08T02:16:18;21.80;99.90
16243;DHT22;11719;51.052;6.982;2023-09-08T02:18:44;21.70;99.90
16243;DHT22;11719;51.052;6.982;2023-09-08T02:21:11;21.70;99.90
16243;DHT22;11719;51.052;6.982;2023-09-08T02:23:37;21.60;99.90
16243;DHT22;11719;51.052;6.982;2023-09-08T02:26:03;21.60;99.90
16243;DHT22;11719;51.052;6.982;2023-09-08T02:28:29;21.60;99.90
16243;DHT22;11719;51.052;6.982;2023-09-08T02:30:55;21.60;99.90
16243;DHT22;11719;51.052;6.982;2023-09-08T02:33:21;21.70;99.90
16243;DHT22;11719;51.052;6.982;2023-09-08T02:35:46;21.70;99.90
16243;DHT22;11719;51.052;6.982;2023-09-08T02:38:12;21.70;99.90
16243;DHT22;11719;51.052;6.982;2023-09-08T02:40:38;21.70;99.90
16243;DHT22;11719;51.052;6.982;2023-09-08T02:43:04;21.70;99.90
16243;DHT22;11719;51.052;6.982;2023-09-08T02:45:30;21.70;99.90
16243;DHT22;11719;51.052;6.982;2023-09-08T02:47:56;21.70;99.90
16243;DHT22;11719;51.052;6.982;2023-09-08T02:50:22;21.70;99.90
16243;DHT22;11719;51.052;6.982;2023-09-08T02:52:49;21.60;99.90
16243;DHT22;11719;51.052;6.982;2023-09-08T02:55:15;21.60;99.90
16243;DHT22;11719;51.052;6.982;2023-09-08T02:57:40;21.60;99.90
16243;DHT22;11719;51.052;6.982;2023-09-08T03:00:07;21.60;99.90
16243;DHT22;11719;51.052;6.982;2023-09-08T03:02:33;21.60;99.90
16243;DHT22;11719;51.052;6.982;2023-09-08T03:05:00;21.60;99.90
16243;DHT22;11719;51.052;6.982;2023-09-08T03:07:27;21.60;99.90
16243;DHT22;11719;51.052;6.982;2023-09-08T03:09:53;21.60;99.90
16243;DHT22;11719;51.052;6.982;2023-09-08T03:12:19;21.60;99.90
16243;DHT22;11719;51.052;6.982;2023-09-08T03:14:45;21.60;99.90
16243;DHT22;11719;51.052;6.982;2023-09-08T03:17:11;21.70;99.90
16243;DHT22;11719;51.052;6.982;2023-09-08T03:19:38;21.60;99.90
16243;DHT22;11719;51.052;6.982;2023-09-08T03:22:04;21.70;99.90
16243;DHT22;11719;51.052;6.982;2023-09-08T03:24:30;21.70;99.90
16243;DHT22;11719;51.052;6.982;2023-09-08T03:26:55;21.70;99.90
16243;DHT22;11719;51.052;6.982;2023-09-08T03:29:23;21.70;99.90
16243;DHT22;11719;51.052;6.982;2023-09-08T03:31:49;21.80;99.90
16243;DHT22;11719;51.052;6.982;2023-09-08T03:34:14;21.80;99.90
16243;DHT22;11719;51.052;6.982;2023-09-08T03:36:40;21.80;99.90
16243;DHT22;11719;51.052;6.982;2023-09-08T03:39:06;21.80;99.90
16243;DHT22;11719;51.052;6.982;2023-09-08T03:41:35;21.80;99.90
16243;DHT22;11719;51.052;6.982;2023-09-08T03:44:01;21.80;99.90
16243;DHT22;11719;51.052;6.982;2023-09-08T03:46:26;21.80;99.90
16243;DHT22;11719;51.052;6.982;2023-09-08T03:48:52;21.80;99.90
16243;DHT22;11719;51.052;6.982;2023-09-08T03:51:24;21.80;99.90
16243;DHT22;11719;51.052;6.982;2023-09-08T03:53:50;21.80;99.90
16243;DHT22;11719;51.052;6.982;2023-09-08T03:56:16;21.70;99.90
16243;DHT22;11719;51.052;6.982;2023-09-08T03:58:42;21.70;99.90
16243;DHT22;11719;51.052;6.982;2023-09-08T04:01:08;21.70;99.90
16243;DHT22;11719;51.052;6.982;2023-09-08T04:03:33;21.70;99.90
16243;DHT22;11719;51.052;6.982;2023-09-08T04:05:59;21.70;99.90
16243;DHT22;11719;51.052;6.982;2023-09-08T04:08:25;21.80;99.90
16243;DHT22;11719;51.052;6.982;2023-09-08T04:10:50;21.80;99.90
16243;DHT22;11719;51.052;6.982;2023-09-08T04:13:16;21.80;99.90
16243;DHT22;11719;51.052;6.982;2023-09-08T04:15:42;21.80;99.90
16243;DHT22;11719;51.052;6.982;2023-09-08T04:18:08;21.90;99.90
16243;DHT22;11719;51.052;6.982;2023-09-08T04:20:34;21.90;99.90
16243;DHT22;11719;51.052;6.982;2023-09-08T04:23:00;21.90;99.90
16243;DHT22;11719;51.052;6.982;2023-09-08T04:25:25;21.90;99.90
16243;DHT22;11719;51.052;6.982;2023-09-08T04:27:51;21.90;99.90
16243;DHT22;11719;51.052;6.982;2023-09-08T04:30:17;21.90;99.90
16243;DHT22;11719;51.052;6.982;2023-09-08T04:32:44;21.90;99.90
16243;DHT22;11719;51.052;6.982;2023-09-08T04:35:10;21.90;99.90
16243;DHT22;11719;51.052;6.982;2023-09-08T04:37:36;21.90;99.90
16243;DHT22;11719;51.052;6.982;2023-09-08T04:40:02;21.90;99.90
16243;DHT22;11719;51.052;6.982;2023-09-08T04:42:29;21.90;99.90
16243;DHT22;11719;51.052;6.982;2023-09-08T04:44:56;21.90;99.90
16243;DHT22;11719;51.052;6.982;2023-09-08T04:47:22;21.90;99.90
16243;DHT22;11719;51.052;6.982;2023-09-08T04:49:48;21.90;99.90
16243;DHT22;11719;51.052;6.982;2023-09-08T04:52:13;21.80;99.90
16243;DHT22;11719;51.052;6.982;2023-09-08T04:54:40;21.80;99.90
16243;DHT22;11719;51.052;6.982;2023-09-08T04:57:06;21.70;99.90
16243;DHT22;11719;51.052;6.982;2023-09-08T04:59:32;21.70;99.90
16243;DHT22;11719;51.052;6.982;2023-09-08T05:01:58;21.80;99.90
16243;DHT22;11719;51.052;6.982;2023-09-08T05:04:24;21.80;99.90
16243;DHT22;11719;51.052;6.982;2023-09-08T05:06:50;21.80;99.90
16243;DHT22;11719;51.052;6.982;2023-09-08T05:09:16;21.80;99.90
16243;DHT22;11719;51.052;6.982;2023-09-08T05:11:41;21.80;99.90
16243;DHT22;11719;51.052;6.982;2023-09-08T05:14:07;21.80;99.90
16243;DHT22;11719;51.052;6.982;2023-09-08T05:16:33;21.80;99.90
16243;DHT22;11719;51.052;6.982;2023-09-08T05:19:05;21.80;99.90
16243;DHT22;11719;51.052;6.982;2023-09-08T05:21:32;21.80;99.90
16243;DHT22;11719;51.052;6.982;2023-09-08T05:23:59;21.80;99.90
16243;DHT22;11719;51.052;6.982;2023-09-08T05:26:24;21.80;99.90
16243;DHT22;11719;51.052;6.982;2023-09-08T05:28:50;21.80;99.90
16243;DHT22;11719;51.052;6.982;2023-09-08T05:31:16;21.70;99.90
16243;DHT22;11719;51.052;6.982;2023-09-08T05:33:42;21.70;99.90
16243;DHT22;11719;51.052;6.982;2023-09-08T05:36:07;21.70;99.90
16243;DHT22;11719;51.052;6.982;2023-09-08T05:38:33;21.70;99.90
16243;DHT22;11719;51.052;6.982;2023-09-08T05:40:59;21.80;99.90
16243;DHT22;11719;51.052;6.982;2023-09-08T05:43:25;21.80;99.90
16243;DHT22;11719;51.052;6.982;2023-09-08T05:45:51;21.80;99.90
16243;DHT22;11719;51.052;6.982;2023-09-08T05:48:17;21.80;99.90
16243;DHT22;11719;51.052;6.982;2023-09-08T05:50:42;21.80;99.90
16243;DHT22;11719;51.052;6.982;2023-09-08T05:53:08;21.90;99.90
16243;DHT22;11719;51.052;6.982;2023-09-08T05:55:34;21.90;99.90
16243;DHT22;11719;51.052;6.982;2023-09-08T05:58:00;21.90;99.90
16243;DHT22;11719;51.052;6.982;2023-09-08T06:00:26;21.90;99.90
16243;DHT22;11719;51.052;6.982;2023-09-08T06:02:51;21.90;99.90
16243;DHT22;11719;51.052;6.982;2023-09-08T06:05:18;21.80;99.90
16243;DHT22;11719;51.052;6.982;2023-09-08T06:07:43;21.80;99.90
16243;DHT22;11719;51.052;6.982;2023-09-08T06:10:09;21.70;99.90
16243;DHT22;11719;51.052;6.982;2023-09-08T06:12:35;21.70;99.90
16243;DHT22;11719;51.052;6.982;2023-09-08T06:15:04;21.70;99.90
16243;DHT22;11719;51.052;6.982;2023-09-08T06:17:31;21.60;99.90
16243;DHT22;11719;51.052;6.982;2023-09-08T06:19:57;21.60;99.90
16243;DHT22;11719;51.052;6.982;2023-09-08T06:22:22;21.60;99.90
16243;DHT22;11719;51.052;6.982;2023-09-08T06:24:48;21.60;99.90
16243;DHT22;11719;51.052;6.982;2023-09-08T06:27:14;21.70;99.90
16243;DHT22;11719;51.052;6.982;2023-09-08T06:29:40;21.70;99.90
16243;DHT22;11719;51.052;6.982;2023-09-08T06:32:09;21.70;99.90
16243;DHT22;11719;51.052;6.982;2023-09-08T06:34:35;21.80;99.90
16243;DHT22;11719;51.052;6.982;2023-09-08T06:37:02;21.80;99.90
16243;DHT22;11719;51.052;6.982;2023-09-08T06:39:27;21.80;99.90
16243;DHT22;11719;51.052;6.982;2023-09-08T06:41:54;21.70;99.90
16243;DHT22;11719;51.052;6.982;2023-09-08T06:44:20;21.60;99.90
16243;DHT22;11719;51.052;6.982;2023-09-08T06:46:46;21.50;99.90
16243;DHT22;11719;51.052;6.982;2023-09-08T06:49:12;21.60;99.90
16243;DHT22;11719;51.052;6.982;2023-09-08T06:51:38;21.60;99.90
16243;DHT22;11719;51.052;6.982;2023-09-08T06:54:04;21.60;99.90
16243;DHT22;11719;51.052;6.982;2023-09-08T06:56:30;21.60;99.90
16243;DHT22;11719;51.052;6.982;2023-09-08T06:58:56;21.60;99.90
16243;DHT22;11719;51.052;6.982;2023-09-08T07:01:26;21.70;99.90
16243;DHT22;11719;51.052;6.982;2023-09-08T07:03:52;21.70;99.90
16243;DHT22;11719;51.052;6.982;2023-09-08T07:06:17;21.60;99.90
16243;DHT22;11719;51.052;6.982;2023-09-08T07:08:43;21.60;99.90
16243;DHT22;11719;51.052;6.982;2023-09-08T07:11:09;21.50;99.90
16243;DHT22;11719;51.052;6.982;2023-09-08T07:13:36;21.60;99.90
16243;DHT22;11719;51.052;6.982;2023-09-08T07:16:02;21.60;99.90
16243;DHT22;11719;51.052;6.982;2023-09-08T07:18:28;21.70;99.90
16243;DHT22;11719;51.052;6.982;2023-09-08T07:20:54;21.70;99.90
16243;DHT22;11719;51.052;6.982;2023-09-08T07:23:20;21.70;99.90
16243;DHT22;11719;51.052;6.982;2023-09-08T07:25:49;21.70;99.90
16243;DHT22;11719;51.052;6.982;2023-09-08T07:28:16;21.70;99.90
16243;DHT22;11719;51.052;6.982;2023-09-08T07:30:42;21.80;99.90
16243;DHT22;11719;51.052;6.982;2023-09-08T07:33:08;21.80;99.90
16243;DHT22;11719;51.052;6.982;2023-09-08T07:35:39;21.80;99.90
16243;DHT22;11719;51.052;6.982;2023-09-08T07:38:06;21.80;99.90
16243;DHT22;11719;51.052;6.982;2023-09-08T07:40:36;21.90;99.90
16243;DHT22;11719;51.052;6.982;2023-09-08T07:43:01;21.90;99.90
16243;DHT22;11719;51.052;6.982;2023-09-08T07:45:28;21.90;99.90
16243;DHT22;11719;51.052;6.982;2023-09-08T07:47:54;22.00;99.90
16243;DHT22;11719;51.052;6.982;2023-09-08T07:50:23;22.00;99.90
16243;DHT22;11719;51.052;6.982;2023-09-08T07:52:52;22.00;99.90
16243;DHT22;11719;51.052;6.982;2023-09-08T07:55:19;22.00;99.90
16243;DHT22;11719;51.052;6.982;2023-09-08T07:57:48;22.00;99.90
16243;DHT22;11719;51.052;6.982;2023-09-08T08:00:14;22.10;99.90
16243;DHT22;11719;51.052;6.982;2023-09-08T08:02:53;22.10;99.90
16243;DHT22;11719;51.052;6.982;2023-09-08T08:05:20;22.20;99.90
16243;DHT22;11719;51.052;6.982;2023-09-08T08:07:46;22.20;99.90
16243;DHT22;11719;51.052;6.982;2023-09-08T08:10:13;22.20;99.90
16243;DHT22;11719;51.052;6.982;2023-09-08T08:12:42;22.30;99.90
16243;DHT22;11719;51.052;6.982;2023-09-08T08:15:10;22.20;99.90
16243;DHT22;11719;51.052;6.982;2023-09-08T08:17:36;22.30;99.90
16243;DHT22;11719;51.052;6.982;2023-09-08T08:20:04;22.30;99.90
16243;DHT22;11719;51.052;6.982;2023-09-08T08:22:33;22.30;99.90
16243;DHT22;11719;51.052;6.982;2023-09-08T08:24:59;22.20;99.90
16243;DHT22;11719;51.052;6.982;2023-09-08T08:27:25;22.30;99.90
16243;DHT22;11719;51.052;6.982;2023-09-08T08:29:51;22.30;99.90
16243;DHT22;11719;51.052;6.982;2023-09-08T08:32:17;22.20;99.90
16243;DHT22;11719;51.052;6.982;2023-09-08T08:34:43;22.20;99.90
16243;DHT22;11719;51.052;6.982;2023-09-08T08:37:11;22.20;99.90
16243;DHT22;11719;51.052;6.982;2023-09-08T08:39:37;22.30;99.90
16243;DHT22;11719;51.052;6.982;2023-09-08T08:42:11;22.30;99.90
16243;DHT22;11719;51.052;6.982;2023-09-08T08:44:38;22.20;99.90
16243;DHT22;11719;51.052;6.982;2023-09-08T08:47:07;22.10;99.90
16243;DHT22;11719;51.052;6.982;2023-09-08T08:49:34;22.10;99.90
16243;DHT22;11719;51.052;6.982;2023-09-08T08:52:00;22.20;99.90
16243;DHT22;11719;51.052;6.982;2023-09-08T08:54:34;22.30;99.90
16243;DHT22;11719;51.052;6.982;2023-09-08T08:57:01;22.30;99.90
16243;DHT22;11719;51.052;6.982;2023-09-08T08:59:28;22.30;99.90
16243;DHT22;11719;51.052;6.982;2023-09-08T09:01:54;22.40;99.90
16243;DHT22;11719;51.052;6.982;2023-09-08T09:04:21;22.50;99.90
16243;DHT22;11719;51.052;6.982;2023-09-08T09:06:47;22.50;99.90
16243;DHT22;11719;51.052;6.982;2023-09-08T09:09:14;22.50;99.90
16243;DHT22;11719;51.052;6.982;2023-09-08T09:11:40;22.40;99.90
16243;DHT22;11719;51.052;6.982;2023-09-08T09:14:06;22.40;99.90
16243;DHT22;11719;51.052;6.982;2023-09-08T09:16:39;22.30;99.90
16243;DHT22;11719;51.052;6.982;2023-09-08T09:19:06;22.40;99.90
16243;DHT22;11719;51.052;6.982;2023-09-08T09:21:48;22.40;99.90
16243;DHT22;11719;51.052;6.982;2023-09-08T09:24:17;22.50;99.90
16243;DHT22;11719;51.052;6.982;2023-09-08T09:26:55;22.40;99.90
16243;DHT22;11719;51.052;6.982;2023-09-08T09:29:21;22.30;99.90
16243;DHT22;11719;51.052;6.982;2023-09-08T09:31:55;22.30;99.90
16243;DHT22;11719;51.052;6.982;2023-09-08T09:34:22;22.40;99.90
16243;DHT22;11719;51.052;6.982;2023-09-08T09:36:49;22.40;99.90
16243;DHT22;11719;51.052;6.982;2023-09-08T09:39:23;22.40;99.90
16243;DHT22;11719;51.052;6.982;2023-09-08T09:41:54;22.40;99.90
16243;DHT22;11719;51.052;6.982;2023-09-08T09:44:21;22.30;99.90
16243;DHT22;11719;51.052;6.982;2023-09-08T09:46:48;22.20;99.90
16243;DHT22;11719;51.052;6.982;2023-09-08T09:49:17;22.20;99.90
16243;DHT22;11719;51.052;6.982;2023-09-08T09:51:46;22.20;99.90
16243;DHT22;11719;51.052;6.982;2023-09-08T09:54:14;22.30;99.90
16243;DHT22;11719;51.052;6.982;2023-09-08T09:56:41;22.40;99.90
16243;DHT22;11719;51.052;6.982;2023-09-08T09:59:09;22.40;99.90
16243;DHT22;11719;51.052;6.982;2023-09-08T10:01:37;22.30;99.90
16243;DHT22;11719;51.052;6.982;2023-09-08T10:04:04;22.30;99.90
16243;DHT22;11719;51.052;6.982;2023-09-08T10:06:32;22.30;99.90
16243;DHT22;11719;51.052;6.982;2023-09-08T10:09:03;22.40;99.90
16243;DHT22;11719;51.052;6.982;2023-09-08T10:11:42;22.30;99.90
16243;DHT22;11719;51.052;6.982;2023-09-08T10:14:13;22.20;99.90
16243;DHT22;11719;51.052;6.982;2023-09-08T10:16:45;22.20;99.90
16243;DHT22;11719;51.052;6.982;2023-09-08T10:19:16;22.20;99.90
16243;DHT22;11719;51.052;6.982;2023-09-08T10:21:45;22.20;99.90
16243;DHT22;11719;51.052;6.982;2023-09-08T10:24:24;22.30;99.90
16243;DHT22;11719;51.052;6.982;2023-09-08T10:27:06;22.30;99.90
16243;DHT22;11719;51.052;6.982;2023-09-08T10:29:35;22.60;99.90
16243;DHT22;11719;51.052;6.982;2023-09-08T10:32:01;22.60;99.90
16243;DHT22;11719;51.052;6.982;2023-09-08T10:34:30;22.40;99.90
16243;DHT22;11719;51.052;6.982;2023-09-08T10:36:56;22.40;99.90
16243;DHT22;11719;51.052;6.982;2023-09-08T10:42:23;22.40;99.90
16243;DHT22;11719;51.052;6.982;2023-09-08T10:44:59;22.70;99.90
16243;DHT22;11719;51.052;6.982;2023-09-08T10:47:33;22.80;99.90
16243;DHT22;11719;51.052;6.982;2023-09-08T10:50:07;23.00;99.90
16243;DHT22;11719;51.052;6.982;2023-09-08T10:52:35;22.90;99.90
16243;DHT22;11719;51.052;6.982;2023-09-08T10:55:01;22.70;99.90
16243;DHT22;11719;51.052;6.982;2023-09-08T10:57:27;22.80;99.90
16243;DHT22;11719;51.052;6.982;2023-09-08T10:59:54;22.90;99.90
16243;DHT22;11719;51.052;6.982;2023-09-08T11:02:42;22.90;99.90
16243;DHT22;11719;51.052;6.982;2023-09-08T11:05:15;23.20;99.90
16243;DHT22;11719;51.052;6.982;2023-09-08T11:07:43;23.30;99.90
16243;DHT22;11719;51.052;6.982;2023-09-08T11:10:10;23.20;99.90
16243;DHT22;11719;51.052;6.982;2023-09-08T11:12:37;23.10;99.90
16243;DHT22;11719;51.052;6.982;2023-09-08T11:15:05;23.00;99.90
16243;DHT22;11719;51.052;6.982;2023-09-08T11:17:35;23.00;99.90
16243;DHT22;11719;51.052;6.982;2023-09-08T11:20:05;23.00;99.90
16243;DHT22;11719;51.052;6.982;2023-09-08T11:22:34;22.80;99.90
16243;DHT22;11719;51.052;6.982;2023-09-08T11:25:01;22.90;99.90
16243;DHT22;11719;51.052;6.982;2023-09-08T11:27:30;22.70;99.90
16243;DHT22;11719;51.052;6.982;2023-09-08T11:29:57;22.60;99.90
16243;DHT22;11719;51.052;6.982;2023-09-08T11:32:24;22.50;99.90
16243;DHT22;11719;51.052;6.982;2023-09-08T11:34:50;22.50;99.90
16243;DHT22;11719;51.052;6.982;2023-09-08T11:37:17;22.50;99.90
16243;DHT22;11719;51.052;6.982;2023-09-08T11:39:45;22.60;99.90
16243;DHT22;11719;51.052;6.982;2023-09-08T11:42:14;22.60;99.90
16243;DHT22;11719;51.052;6.982;2023-09-08T11:44:42;22.50;99.90
16243;DHT22;11719;51.052;6.982;2023-09-08T11:47:09;22.70;99.90
16243;DHT22;11719;51.052;6.982;2023-09-08T11:49:40;22.70;99.90
16243;DHT22;11719;51.052;6.982;2023-09-08T11:52:07;22.60;99.90
16243;DHT22;11719;51.052;6.982;2023-09-08T11:54:34;22.50;99.90
16243;DHT22;11719;51.052;6.982;2023-09-08T11:57:03;22.40;99.90
16243;DHT22;11719;51.052;6.982;2023-09-08T11:59:33;22.40;99.90
16243;DHT22;11719;51.052;6.982;2023-09-08T12:02:00;22.30;99.90
16243;DHT22;11719;51.052;6.982;2023-09-08T12:04:26;22.30;99.90
16243;DHT22;11719;51.052;6.982;2023-09-08T12:06:53;22.30;99.90
16243;DHT22;11719;51.052;6.982;2023-09-08T12:09:21;22.40;99.90
16243;DHT22;11719;51.052;6.982;2023-09-08T12:11:48;22.30;99.90
16243;DHT22;11719;51.052;6.982;2023-09-08T12:14:15;22.30;99.90
16243;DHT22;11719;51.052;6.982;2023-09-08T12:16:42;22.30;99.90
16243;DHT22;11719;51.052;6.982;2023-09-08T12:19:27;22.30;99.90
16243;DHT22;11719;51.052;6.982;2023-09-08T12:21:59;22.30;99.90
16243;DHT22;11719;51.052;6.982;2023-09-08T12:24:46;22.20;99.90
16243;DHT22;11719;51.052;6.982;2023-09-08T12:27:17;22.20;99.90
16243;DHT22;11719;51.052;6.982;2023-09-08T12:29:54;22.40;99.90
16243;DHT22;11719;51.052;6.982;2023-09-08T12:32:22;22.50;99.90
16243;DHT22;11719;51.052;6.982;2023-09-08T12:34:49;22.60;99.90
16243;DHT22;11719;51.052;6.982;2023-09-08T12:37:23;22.60;99.90
16243;DHT22;11719;51.052;6.982;2023-09-08T12:39:53;22.50;99.90
16243;DHT22;11719;51.052;6.982;2023-09-08T12:42:19;22.40;99.90
16243;DHT22;11719;51.052;6.982;2023-09-08T12:44:47;22.50;99.90
16243;DHT22;11719;51.052;6.982;2023-09-08T12:47:13;22.40;99.90
16243;DHT22;11719;51.052;6.982;2023-09-08T12:49:39;22.30;99.90
16243;DHT22;11719;51.052;6.982;2023-09-08T12:52:05;22.30;99.90
16243;DHT22;11719;51.052;6.982;2023-09-08T12:54:32;22.30;99.90
16243;DHT22;11719;51.052;6.982;2023-09-08T12:56:58;22.40;99.90
16243;DHT22;11719;51.052;6.982;2023-09-08T12:59:24;22.40;99.90
16243;DHT22;11719;51.052;6.982;2023-09-08T13:01:50;22.40;99.90
16243;DHT22;11719;51.052;6.982;2023-09-08T13:04:15;22.40;99.90
16243;DHT22;11719;51.052;6.982;2023-09-08T13:06:41;22.40;99.90
16243;DHT22;11719;51.052;6.982;2023-09-08T13:09:07;22.40;99.90
16243;DHT22;11719;51.052;6.982;2023-09-08T13:11:33;22.40;99.90
16243;DHT22;11719;51.052;6.982;2023-09-08T13:13:59;22.40;99.90
16243;DHT22;11719;51.052;6.982;2023-09-08T13:16:25;22.40;99.90
16243;DHT22;11719;51.052;6.982;2023-09-08T13:18:51;22.40;99.90
16243;DHT22;11719;51.052;6.982;2023-09-08T13:21:17;22.50;99.90
16243;DHT22;11719;51.052;6.982;2023-09-08T13:23:43;22.50;99.90
16243;DHT22;11719;51.052;6.982;2023-09-08T13:26:09;22.50;99.90
16243;DHT22;11719;51.052;6.982;2023-09-08T13:28:35;22.50;99.90
16243;DHT22;11719;51.052;6.982;2023-09-08T13:31:01;22.50;99.90
16243;DHT22;11719;51.052;6.982;2023-09-08T13:33:27;22.50;99.90
16243;DHT22;11719;51.052;6.982;2023-09-08T13:35:53;22.60;99.90
16243;DHT22;11719;51.052;6.982;2023-09-08T13:38:20;22.90;99.90
16243;DHT22;11719;51.052;6.982;2023-09-08T13:40:46;23.10;99.90
16243;DHT22;11719;51.052;6.982;2023-09-08T13:43:12;23.80;99.90
16243;DHT22;11719;51.052;6.982;2023-09-08T13:45:39;23.90;99.90
16243;DHT22;11719;51.052;6.982;2023-09-08T13:48:08;23.80;99.90
16243;DHT22;11719;51.052;6.982;2023-09-08T13:50:34;23.70;99.90
16243;DHT22;11719;51.052;6.982;2023-09-08T13:53:00;23.80;99.90
16243;DHT22;11719;51.052;6.982;2023-09-08T13:55:25;24.10;99.90
16243;DHT22;11719;51.052;6.982;2023-09-08T13:57:51;24.00;99.90
16243;DHT22;11719;51.052;6.982;2023-09-08T14:00:18;23.80;99.90
16243;DHT22;11719;51.052;6.982;2023-09-08T14:02:44;23.50;99.90
16243;DHT22;11719;51.052;6.982;2023-09-08T14:05:10;23.20;99.90
16243;DHT22;11719;51.052;6.982;2023-09-08T14:07:36;23.00;99.90
16243;DHT22;11719;51.052;6.982;2023-09-08T14:10:02;22.90;99.90
16243;DHT22;11719;51.052;6.982;2023-09-08T14:12:35;22.90;99.90
16243;DHT22;11719;51.052;6.982;2023-09-08T14:15:02;22.90;99.90
16243;DHT22;11719;51.052;6.982;2023-09-08T14:17:29;23.00;99.90
16243;DHT22;11719;51.052;6.982;2023-09-08T14:19:56;22.90;99.90
16243;DHT22;11719;51.052;6.982;2023-09-08T14:22:22;22.90;99.90
16243;DHT22;11719;51.052;6.982;2023-09-08T14:24:48;23.00;99.90
16243;DHT22;11719;51.052;6.982;2023-09-08T14:27:14;23.00;99.90
16243;DHT22;11719;51.052;6.982;2023-09-08T14:29:39;23.10;99.90
16243;DHT22;11719;51.052;6.982;2023-09-08T14:32:05;23.00;99.90
16243;DHT22;11719;51.052;6.982;2023-09-08T14:34:32;23.10;99.90
16243;DHT22;11719;51.052;6.982;2023-09-08T14:36:58;23.20;99.90
16243;DHT22;11719;51.052;6.982;2023-09-08T14:39:24;23.10;99.90
16243;DHT22;11719;51.052;6.982;2023-09-08T14:41:51;23.00;99.90
16243;DHT22;11719;51.052;6.982;2023-09-08T14:44:18;22.80;99.90
16243;DHT22;11719;51.052;6.982;2023-09-08T14:46:46;22.80;99.90
16243;DHT22;11719;51.052;6.982;2023-09-08T14:49:12;22.80;99.90
16243;DHT22;11719;51.052;6.982;2023-09-08T14:51:40;22.90;99.90
16243;DHT22;11719;51.052;6.982;2023-09-08T14:54:06;22.90;99.90
16243;DHT22;11719;51.052;6.982;2023-09-08T14:56:32;22.90;99.90
16243;DHT22;11719;51.052;6.982;2023-09-08T14:58:58;22.90;99.90
16243;DHT22;11719;51.052;6.982;2023-09-08T15:01:25;23.10;99.90
16243;DHT22;11719;51.052;6.982;2023-09-08T15:03:52;23.50;99.90
16243;DHT22;11719;51.052;6.982;2023-09-08T15:06:21;23.90;99.90
16243;DHT22;11719;51.052;6.982;2023-09-08T15:08:47;23.90;99.90
16243;DHT22;11719;51.052;6.982;2023-09-08T15:11:13;23.80;99.90
16243;DHT22;11719;51.052;6.982;2023-09-08T15:13:39;23.60;99.90
16243;DHT22;11719;51.052;6.982;2023-09-08T15:16:06;23.40;99.90
16243;DHT22;11719;51.052;6.982;2023-09-08T15:18:33;23.20;99.90
16243;DHT22;11719;51.052;6.982;2023-09-08T15:20:59;23.10;99.90
16243;DHT22;11719;51.052;6.982;2023-09-08T15:23:25;23.00;99.90
16243;DHT22;11719;51.052;6.982;2023-09-08T15:25:55;22.80;99.90
16243;DHT22;11719;51.052;6.982;2023-09-08T15:28:22;22.80;99.90
16243;DHT22;11719;51.052;6.982;2023-09-08T15:30:52;22.60;99.90
16243;DHT22;11719;51.052;6.982;2023-09-08T15:33:19;22.60;99.90